createdAt,value
2018-03-06T00:00:01.376Z,4.58
2018-03-06T00:01:01.358Z,4.54
2018-03-06T00:02:01.302Z,4.53
2018-03-06T00:03:01.299Z,4.46
2018-03-06T00:04:01.270Z,4.47
2018-03-06T00:05:02.089Z,4.46
2018-03-06T00:06:01.208Z,4.46
2018-03-06T00:07:01.283Z,4.50
2018-03-06T00:08:01.174Z,4.50
2018-03-06T00:09:01.134Z,4.42
2018-03-06T00:10:01.110Z,4.47
2018-03-06T00:11:01.032Z,4.48
2018-03-06T00:12:01.029Z,4.38
2018-03-06T00:13:01.006Z,4.42
2018-03-06T00:14:00.968Z,4.39
2018-03-06T00:15:00.941Z,4.48
2018-03-06T00:16:00.896Z,4.42
2018-03-06T00:17:00.859Z,4.44
2018-03-06T00:18:00.843Z,4.42
2018-03-06T00:19:00.850Z,4.46
2018-03-06T00:20:00.793Z,4.44
2018-03-06T00:21:00.764Z,4.46
2018-03-06T00:22:00.730Z,4.39
2018-03-06T00:23:00.689Z,4.28
2018-03-06T00:24:00.682Z,4.33
2018-03-06T00:25:00.706Z,4.30
2018-03-06T00:26:00.625Z,4.46
2018-03-06T00:27:00.611Z,4.32
2018-03-06T00:28:00.560Z,4.36
2018-03-06T00:29:00.509Z,4.30
2018-03-06T00:30:00.486Z,4.38
2018-03-06T00:31:00.468Z,4.46
2018-03-06T00:32:00.470Z,4.32
2018-03-06T00:33:00.473Z,4.29
2018-03-06T00:34:00.381Z,4.22
2018-03-06T00:35:00.332Z,4.26
2018-03-06T00:36:00.319Z,4.18
2018-03-06T00:37:00.333Z,4.15
2018-03-06T00:38:00.284Z,4.14
2018-03-06T00:39:00.242Z,3.97
2018-03-06T00:40:00.221Z,4.14
2018-03-06T00:41:00.191Z,4.02
2018-03-06T00:42:00.161Z,4.14
2018-03-06T00:43:00.148Z,3.99
2018-03-06T00:44:00.077Z,4.12
2018-03-06T00:45:00.140Z,4.17
2018-03-06T00:46:00.012Z,4.14
2018-03-06T00:47:00.027Z,4.12
2018-03-06T00:47:59.959Z,4.04
2018-03-06T00:48:59.948Z,4.11
2018-03-06T00:49:59.906Z,4.03
2018-03-06T00:50:59.905Z,3.97
2018-03-06T00:51:59.884Z,4.00
2018-03-06T00:52:59.848Z,4.08
2018-03-06T00:53:59.822Z,4.12
2018-03-06T00:54:59.798Z,4.04
2018-03-06T00:55:59.750Z,4.04
2018-03-06T00:56:59.698Z,4.04
2018-03-06T00:57:59.689Z,4.03
2018-03-06T00:58:59.643Z,4.11
2018-03-06T00:59:59.644Z,4.11
2018-03-06T01:00:59.612Z,4.08
2018-03-06T01:01:59.564Z,4.03
2018-03-06T01:02:59.577Z,4.10
2018-03-06T01:03:59.504Z,4.04
2018-03-06T01:04:59.454Z,4.02
2018-03-06T01:05:59.422Z,4.03
2018-03-06T01:06:59.423Z,3.93
2018-03-06T01:07:59.360Z,3.94
2018-03-06T01:08:59.359Z,3.90
2018-03-06T01:09:59.395Z,3.85
2018-03-06T01:10:59.292Z,3.78
2018-03-06T01:11:59.251Z,3.78
2018-03-06T01:12:59.245Z,3.82
2018-03-06T01:13:59.201Z,3.74
2018-03-06T01:14:59.196Z,3.85
2018-03-06T01:16:00.863Z,3.69
2018-03-06T01:17:00.339Z,3.74
2018-03-06T01:17:59.761Z,3.81
2018-03-06T01:18:59.399Z,3.72
2018-03-06T01:19:59.019Z,3.74
2018-03-06T01:20:59.019Z,3.72
2018-03-06T01:21:59.006Z,3.69
2018-03-06T01:22:58.933Z,3.71
2018-03-06T01:23:58.935Z,3.69
2018-03-06T01:24:58.874Z,3.69
2018-03-06T01:25:58.839Z,3.72
2018-03-06T01:26:58.834Z,3.81
2018-03-06T01:27:58.842Z,3.81
2018-03-06T01:28:58.748Z,3.72
2018-03-06T01:29:58.753Z,3.82
2018-03-06T01:30:58.706Z,3.79
2018-03-06T01:31:58.684Z,3.64
2018-03-06T01:32:58.637Z,3.69
2018-03-06T01:33:58.624Z,3.74
2018-03-06T01:34:58.631Z,3.71
2018-03-06T01:35:58.569Z,3.63
2018-03-06T01:36:58.567Z,3.60
2018-03-06T01:37:58.501Z,3.60
2018-03-06T01:38:58.508Z,3.54
2018-03-06T01:39:58.432Z,3.63
2018-03-06T01:40:58.397Z,3.56
2018-03-06T01:41:58.372Z,3.56
2018-03-06T01:42:58.354Z,3.58
2018-03-06T01:43:58.354Z,3.58
2018-03-06T01:44:58.310Z,3.53
2018-03-06T01:45:58.294Z,3.54
2018-03-06T01:46:58.245Z,3.54
2018-03-06T01:47:58.209Z,3.42
2018-03-06T01:48:58.169Z,3.39
2018-03-06T01:49:58.138Z,3.43
2018-03-06T01:50:58.117Z,3.40
2018-03-06T01:51:58.084Z,3.37
2018-03-06T01:52:58.043Z,3.42
2018-03-06T01:53:58.019Z,3.34
2018-03-06T01:54:58.029Z,3.37
2018-03-06T01:55:57.982Z,3.45
2018-03-06T01:56:57.926Z,3.40
2018-03-06T01:57:57.899Z,3.35
2018-03-06T01:58:57.866Z,3.37
2018-03-06T01:59:57.864Z,3.34
2018-03-06T02:00:57.819Z,3.27
2018-03-06T02:01:57.787Z,3.26
2018-03-06T02:02:57.741Z,3.29
2018-03-06T02:03:57.711Z,3.29
2018-03-06T02:04:57.695Z,3.37
2018-03-06T02:05:57.672Z,3.29
2018-03-06T02:06:57.618Z,3.37
2018-03-06T02:07:57.594Z,3.29
2018-03-06T02:08:57.564Z,3.40
2018-03-06T02:09:57.542Z,3.26
2018-03-06T02:10:57.507Z,3.24
2018-03-06T02:11:57.480Z,3.35
2018-03-06T02:12:57.434Z,3.29
2018-03-06T02:13:57.439Z,3.34
2018-03-06T02:14:57.431Z,3.35
2018-03-06T02:15:57.347Z,3.26
2018-03-06T02:16:57.348Z,3.29
2018-03-06T02:17:57.305Z,3.24
2018-03-06T02:18:57.283Z,3.27
2018-03-06T02:19:57.243Z,3.19
2018-03-06T02:20:57.234Z,3.27
2018-03-06T02:21:57.208Z,3.20
2018-03-06T02:22:57.157Z,3.20
2018-03-06T02:23:57.119Z,3.20
2018-03-06T02:24:57.090Z,3.24
2018-03-06T02:25:57.079Z,3.20
2018-03-06T02:26:57.038Z,3.06
2018-03-06T02:27:57.017Z,3.23
2018-03-06T02:28:56.970Z,3.19
2018-03-06T02:29:56.943Z,3.19
2018-03-06T02:30:56.931Z,3.16
2018-03-06T02:31:56.879Z,3.05
2018-03-06T02:32:56.845Z,3.08
2018-03-06T02:33:56.814Z,3.14
2018-03-06T02:34:56.809Z,3.02
2018-03-06T02:35:56.824Z,3.05
2018-03-06T02:36:56.760Z,3.05
2018-03-06T02:37:56.742Z,3.03
2018-03-06T02:38:56.690Z,3.01
2018-03-06T02:39:56.670Z,3.09
2018-03-06T02:40:56.600Z,3.05
2018-03-06T02:41:56.611Z,2.93
2018-03-06T02:42:56.577Z,3.01
2018-03-06T02:43:56.508Z,2.96
2018-03-06T02:44:56.504Z,2.96
2018-03-06T02:45:56.458Z,2.90
2018-03-06T02:46:56.430Z,2.93
2018-03-06T02:47:56.385Z,2.98
2018-03-06T02:48:56.369Z,2.99
2018-03-06T02:49:56.360Z,2.93
2018-03-06T02:50:56.310Z,2.88
2018-03-06T02:51:56.279Z,2.88
2018-03-06T02:52:56.251Z,2.85
2018-03-06T02:53:56.238Z,2.87
2018-03-06T02:54:56.171Z,2.83
2018-03-06T02:55:56.166Z,2.87
2018-03-06T02:56:56.116Z,2.80
2018-03-06T02:57:56.097Z,2.85
2018-03-06T02:58:56.093Z,2.73
2018-03-06T02:59:56.032Z,2.73
2018-03-06T03:00:56.005Z,2.76
2018-03-06T03:01:55.964Z,2.76
2018-03-06T03:02:55.937Z,2.77
2018-03-06T03:03:56.021Z,2.73
2018-03-06T03:04:55.873Z,2.73
2018-03-06T03:05:55.879Z,2.80
2018-03-06T03:06:55.846Z,2.85
2018-03-06T03:07:55.823Z,2.72
2018-03-06T03:08:55.749Z,2.72
2018-03-06T03:09:55.744Z,2.84
2018-03-06T03:10:55.696Z,2.80
2018-03-06T03:11:55.677Z,2.78
2018-03-06T03:12:55.667Z,2.69
2018-03-06T03:13:55.630Z,2.72
2018-03-06T03:14:55.593Z,2.76
2018-03-06T03:15:55.586Z,2.76
2018-03-06T03:16:55.509Z,2.69
2018-03-06T03:17:55.503Z,2.65
2018-03-06T03:18:55.477Z,2.67
2018-03-06T03:19:55.434Z,2.47
2018-03-06T03:20:55.417Z,2.58
2018-03-06T03:21:55.397Z,2.44
2018-03-06T03:22:55.365Z,2.49
2018-03-06T03:23:55.313Z,2.45
2018-03-06T03:24:55.260Z,2.45
2018-03-06T03:25:55.253Z,2.48
2018-03-06T03:26:55.197Z,2.40
2018-03-06T03:27:55.180Z,2.40
2018-03-06T03:28:55.164Z,2.40
2018-03-06T03:29:55.160Z,2.38
2018-03-06T03:30:55.114Z,2.22
2018-03-06T03:31:55.061Z,2.30
2018-03-06T03:32:55.014Z,2.31
2018-03-06T03:33:55.002Z,2.38
2018-03-06T03:34:54.973Z,2.27
2018-03-06T03:35:54.920Z,2.41
2018-03-06T03:36:54.893Z,2.33
2018-03-06T03:37:54.863Z,2.30
2018-03-06T03:38:54.850Z,2.30
2018-03-06T03:39:54.838Z,2.31
2018-03-06T03:40:54.778Z,2.27
2018-03-06T03:41:54.758Z,2.38
2018-03-06T03:42:54.719Z,2.36
2018-03-06T03:43:54.683Z,2.38
2018-03-06T03:44:54.666Z,2.49
2018-03-06T03:45:54.644Z,2.47
2018-03-06T03:46:54.590Z,2.48
2018-03-06T03:47:54.576Z,2.58
2018-03-06T03:48:54.529Z,2.66
2018-03-06T03:49:54.518Z,2.69
2018-03-06T03:50:54.515Z,2.73
2018-03-06T03:51:54.452Z,2.83
2018-03-06T03:52:54.411Z,2.73
2018-03-06T03:53:54.388Z,2.78
2018-03-06T03:54:54.355Z,2.78
2018-03-06T03:55:54.308Z,2.83
2018-03-06T03:56:54.277Z,2.81
2018-03-06T03:57:54.267Z,2.80
2018-03-06T03:58:54.260Z,2.85
2018-03-06T03:59:54.205Z,2.88
2018-03-06T04:00:54.180Z,2.85
2018-03-06T04:01:54.150Z,2.72
2018-03-06T04:02:54.101Z,2.72
2018-03-06T04:03:54.098Z,2.85
2018-03-06T04:04:54.075Z,2.77
2018-03-06T04:05:54.031Z,2.77
2018-03-06T04:06:54.000Z,2.69
2018-03-06T04:07:53.951Z,2.62
2018-03-06T04:08:53.931Z,2.67
2018-03-06T04:09:53.919Z,2.52
2018-03-06T04:10:53.857Z,2.54
2018-03-06T04:11:53.860Z,2.47
2018-03-06T04:12:53.833Z,2.38
2018-03-06T04:13:53.757Z,2.36
2018-03-06T04:14:53.830Z,2.20
2018-03-06T04:15:53.694Z,2.27
2018-03-06T04:16:53.673Z,2.26
2018-03-06T04:17:53.697Z,2.27
2018-03-06T04:18:53.619Z,2.41
2018-03-06T04:19:53.587Z,2.44
2018-03-06T04:20:53.576Z,2.51
2018-03-06T04:21:53.565Z,2.58
2018-03-06T04:22:53.505Z,2.52
2018-03-06T04:23:53.450Z,2.60
2018-03-06T04:24:53.423Z,2.52
2018-03-06T04:25:53.425Z,2.69
2018-03-06T04:26:53.365Z,2.73
2018-03-06T04:27:53.383Z,2.76
2018-03-06T04:28:53.308Z,2.73
2018-03-06T04:29:53.306Z,2.66
2018-03-06T04:30:53.252Z,2.59
2018-03-06T04:31:53.239Z,2.49
2018-03-06T04:32:53.201Z,2.36
2018-03-06T04:33:53.139Z,2.40
2018-03-06T04:34:53.117Z,2.26
2018-03-06T04:35:53.107Z,2.34
2018-03-06T04:36:53.051Z,2.33
2018-03-06T04:37:53.026Z,2.33
2018-03-06T04:38:53.002Z,2.31
2018-03-06T04:39:52.968Z,2.30
2018-03-06T04:40:52.956Z,2.33
2018-03-06T04:41:52.929Z,2.38
2018-03-06T04:42:52.932Z,2.52
2018-03-06T04:43:52.852Z,2.51
2018-03-06T04:44:52.809Z,2.54
2018-03-06T04:45:52.777Z,2.54
2018-03-06T04:46:52.762Z,2.47
2018-03-06T04:47:52.739Z,2.51
2018-03-06T04:48:52.670Z,2.49
2018-03-06T04:49:52.659Z,2.52
2018-03-06T04:50:52.625Z,2.47
2018-03-06T04:51:52.656Z,2.59
2018-03-06T04:52:52.598Z,2.59
2018-03-06T04:53:53.159Z,2.69
2018-03-06T04:54:52.510Z,2.62
2018-03-06T04:55:52.464Z,2.60
2018-03-06T04:56:52.436Z,2.67
2018-03-06T04:57:52.479Z,2.62
2018-03-06T04:58:52.478Z,2.72
2018-03-06T04:59:52.419Z,2.72
2018-03-06T05:00:52.462Z,2.70
2018-03-06T05:01:52.423Z,2.69
2018-03-06T05:02:52.281Z,2.77
2018-03-06T05:03:52.227Z,2.81
2018-03-06T05:04:52.210Z,2.76
2018-03-06T05:05:52.193Z,2.77
2018-03-06T05:06:52.182Z,2.72
2018-03-06T05:07:52.130Z,2.73
2018-03-06T05:08:52.153Z,2.73
2018-03-06T05:09:52.071Z,2.70
2018-03-06T05:10:52.024Z,2.62
2018-03-06T05:11:52.028Z,2.55
2018-03-06T05:12:51.966Z,2.59
2018-03-06T05:13:51.918Z,2.54
2018-03-06T05:14:51.952Z,2.48
2018-03-06T05:15:51.870Z,2.55
2018-03-06T05:16:51.820Z,2.54
2018-03-06T05:17:51.871Z,2.54
2018-03-06T05:18:51.816Z,2.58
2018-03-06T05:19:51.729Z,2.59
2018-03-06T05:20:51.712Z,2.59
2018-03-06T05:21:51.668Z,2.58
2018-03-06T05:22:51.658Z,2.59
2018-03-06T05:23:51.641Z,2.63
2018-03-06T05:24:51.595Z,2.66
2018-03-06T05:25:51.572Z,2.63
2018-03-06T05:26:51.593Z,2.62
2018-03-06T05:27:51.489Z,2.76
2018-03-06T05:28:51.502Z,2.73
2018-03-06T05:29:51.430Z,2.77
2018-03-06T05:30:51.427Z,2.70
2018-03-06T05:31:51.388Z,2.70
2018-03-06T05:32:51.329Z,2.85
2018-03-06T05:33:51.298Z,2.85
2018-03-06T05:34:51.296Z,2.84
2018-03-06T05:35:51.245Z,2.84
2018-03-06T05:36:51.211Z,2.72
2018-03-06T05:37:51.192Z,2.76
2018-03-06T05:38:51.149Z,2.69
2018-03-06T05:39:51.144Z,2.69
2018-03-06T05:40:51.089Z,2.81
2018-03-06T05:41:51.075Z,2.80
2018-03-06T05:42:51.010Z,2.87
2018-03-06T05:43:50.994Z,2.87
2018-03-06T05:44:50.981Z,2.96
2018-03-06T05:45:50.967Z,2.93
2018-03-06T05:46:50.914Z,2.95
2018-03-06T05:47:50.873Z,2.84
2018-03-06T05:48:50.879Z,2.81
2018-03-06T05:49:50.860Z,2.83
2018-03-06T05:50:50.788Z,2.84
2018-03-06T05:51:50.747Z,2.84
2018-03-06T05:52:50.718Z,2.83
2018-03-06T05:53:50.679Z,2.80
2018-03-06T05:54:50.660Z,2.84
2018-03-06T05:55:50.652Z,2.83
2018-03-06T05:56:50.586Z,2.70
2018-03-06T05:57:50.562Z,2.73
2018-03-06T05:58:50.538Z,2.80
2018-03-06T05:59:50.499Z,2.73
2018-03-06T06:00:50.481Z,2.80
2018-03-06T06:01:50.430Z,2.77
2018-03-06T06:02:50.427Z,2.77
2018-03-06T06:03:50.385Z,2.81
2018-03-06T06:04:50.353Z,2.83
2018-03-06T06:05:50.324Z,2.84
2018-03-06T06:06:50.287Z,2.83
2018-03-06T06:07:50.257Z,2.83
2018-03-06T06:08:50.250Z,2.84
2018-03-06T06:09:50.206Z,2.80
2018-03-06T06:10:50.159Z,2.87
2018-03-06T06:11:50.194Z,2.90
2018-03-06T06:12:50.113Z,2.91
2018-03-06T06:13:50.081Z,2.98
2018-03-06T06:14:50.052Z,2.98
2018-03-06T06:15:49.998Z,2.99
2018-03-06T06:16:49.977Z,2.98
2018-03-06T06:17:49.950Z,2.88
2018-03-06T06:18:49.929Z,2.93
2018-03-06T06:19:49.896Z,2.96
2018-03-06T06:20:49.863Z,2.96
2018-03-06T06:21:49.822Z,3.02
2018-03-06T06:22:49.807Z,3.01
2018-03-06T06:23:49.759Z,2.96
2018-03-06T06:24:49.741Z,2.96
2018-03-06T06:25:49.711Z,3.08
2018-03-06T06:26:49.660Z,2.95
2018-03-06T06:27:49.708Z,3.06
2018-03-06T06:28:49.623Z,3.14
2018-03-06T06:29:49.574Z,3.11
2018-03-06T06:30:49.648Z,3.06
2018-03-06T06:31:49.524Z,3.09
2018-03-06T06:32:49.485Z,3.16
2018-03-06T06:33:49.477Z,3.14
2018-03-06T06:34:49.423Z,3.16
2018-03-06T06:35:49.429Z,3.21
2018-03-06T06:36:49.377Z,3.21
2018-03-06T06:37:49.335Z,3.16
2018-03-06T06:38:49.305Z,3.21
2018-03-06T06:39:49.286Z,3.29
2018-03-06T06:40:49.260Z,3.24
2018-03-06T06:41:49.211Z,3.29
2018-03-06T06:42:49.190Z,3.40
2018-03-06T06:43:49.176Z,3.43
2018-03-06T06:44:49.138Z,3.43
2018-03-06T06:45:49.169Z,3.49
2018-03-06T06:46:49.158Z,3.49
2018-03-06T06:47:49.649Z,3.54
2018-03-06T06:48:48.991Z,3.56
2018-03-06T06:49:48.991Z,3.60
2018-03-06T06:50:48.996Z,3.63
2018-03-06T06:51:48.903Z,3.57
2018-03-06T06:52:48.914Z,3.58
2018-03-06T06:53:48.851Z,3.64
2018-03-06T06:54:48.818Z,3.57
2018-03-06T06:55:48.811Z,3.60
2018-03-06T06:56:48.780Z,3.53
2018-03-06T06:57:48.767Z,3.56
2018-03-06T06:58:49.713Z,3.42
2018-03-06T06:59:48.699Z,3.37
2018-03-06T07:00:48.636Z,3.37
2018-03-06T07:01:48.649Z,3.37
2018-03-06T07:02:48.588Z,3.34
2018-03-06T07:03:48.590Z,3.39
2018-03-06T07:04:48.552Z,3.42
2018-03-06T07:05:48.482Z,3.42
2018-03-06T07:06:48.473Z,3.49
2018-03-06T07:07:48.475Z,3.53
2018-03-06T07:08:48.391Z,3.60
2018-03-06T07:09:48.356Z,3.61
2018-03-06T07:10:48.388Z,3.60
2018-03-06T07:11:48.303Z,3.76
2018-03-06T07:12:48.287Z,3.82
2018-03-06T07:13:48.267Z,3.82
2018-03-06T07:14:48.260Z,3.90
2018-03-06T07:15:48.227Z,3.94
2018-03-06T07:16:48.203Z,3.78
2018-03-06T07:17:48.126Z,3.82
2018-03-06T07:18:48.132Z,3.76
2018-03-06T07:19:48.122Z,3.82
2018-03-06T07:20:48.073Z,3.79
2018-03-06T07:21:48.059Z,3.71
2018-03-06T07:22:48.042Z,3.74
2018-03-06T07:23:48.016Z,3.61
2018-03-06T07:24:47.950Z,3.58
2018-03-06T07:25:47.956Z,3.76
2018-03-06T07:26:47.897Z,3.71
2018-03-06T07:27:47.839Z,3.82
2018-03-06T07:28:47.794Z,3.94
2018-03-06T07:29:47.777Z,3.97
2018-03-06T07:30:47.728Z,3.99
2018-03-06T07:31:47.734Z,4.04
2018-03-06T07:32:47.682Z,3.99
2018-03-06T07:33:47.658Z,4.10
2018-03-06T07:34:47.610Z,4.14
2018-03-06T07:35:47.921Z,4.17
2018-03-06T07:36:47.571Z,4.14
2018-03-06T07:37:47.560Z,4.17
2018-03-06T07:38:47.484Z,4.12
2018-03-06T07:39:47.514Z,4.08
2018-03-06T07:40:47.452Z,4.03
2018-03-06T07:41:47.453Z,4.00
2018-03-06T07:42:47.386Z,4.07
2018-03-06T07:43:47.408Z,4.03
2018-03-06T07:44:47.375Z,4.14
2018-03-06T07:45:47.329Z,4.18
2018-03-06T07:46:47.307Z,4.21
2018-03-06T07:47:47.220Z,4.18
2018-03-06T07:48:47.218Z,4.20
2018-03-06T07:49:47.194Z,4.24
2018-03-06T07:50:47.212Z,4.24
2018-03-06T07:51:47.142Z,4.26
2018-03-06T07:52:47.109Z,4.28
2018-03-06T07:53:47.065Z,4.40
2018-03-06T07:54:47.047Z,4.47
2018-03-06T07:55:47.038Z,4.44
2018-03-06T07:56:46.949Z,4.50
2018-03-06T07:57:46.926Z,4.42
2018-03-06T07:58:46.909Z,4.50
2018-03-06T07:59:46.922Z,4.58
2018-03-06T08:00:46.871Z,4.61
2018-03-06T08:01:46.813Z,4.66
2018-03-06T08:02:46.817Z,4.75
2018-03-06T08:03:46.760Z,4.72
2018-03-06T08:04:46.733Z,4.75
2018-03-06T08:05:46.721Z,4.66
2018-03-06T08:06:46.699Z,4.72
2018-03-06T08:07:46.660Z,4.72
2018-03-06T08:08:46.637Z,4.83
2018-03-06T08:09:46.583Z,4.83
2018-03-06T08:10:46.565Z,4.90
2018-03-06T08:11:46.536Z,4.78
2018-03-06T08:12:46.501Z,5.02
2018-03-06T08:13:46.478Z,4.98
2018-03-06T08:14:46.467Z,4.95
2018-03-06T08:15:46.416Z,5.09
2018-03-06T08:16:46.391Z,5.08
2018-03-06T08:17:46.456Z,5.20
2018-03-06T08:18:46.310Z,5.15
2018-03-06T08:19:46.338Z,5.08
2018-03-06T08:20:46.256Z,5.15
2018-03-06T08:21:46.279Z,5.12
2018-03-06T08:22:46.190Z,5.00
2018-03-06T08:23:46.169Z,5.06
2018-03-06T08:24:46.204Z,5.05
2018-03-06T08:25:46.161Z,5.05
2018-03-06T08:26:46.100Z,5.10
2018-03-06T08:27:46.065Z,5.10
2018-03-06T08:28:46.064Z,5.31
2018-03-06T08:29:46.002Z,5.33
2018-03-06T08:30:46.003Z,5.33
2018-03-06T08:31:45.941Z,5.45
2018-03-06T08:32:45.904Z,5.44
2018-03-06T08:33:45.897Z,5.45
2018-03-06T08:34:45.854Z,5.46
2018-03-06T08:35:45.829Z,5.51
2018-03-06T08:36:45.826Z,5.67
2018-03-06T08:37:45.813Z,5.60
2018-03-06T08:38:45.776Z,5.62
2018-03-06T08:39:45.723Z,5.63
2018-03-06T08:40:45.713Z,5.67
2018-03-06T08:41:45.662Z,5.75
2018-03-06T08:42:45.666Z,5.81
2018-03-06T08:43:45.590Z,5.87
2018-03-06T08:44:45.598Z,5.89
2018-03-06T08:45:45.535Z,6.03
2018-03-06T08:46:45.511Z,6.05
2018-03-06T08:47:45.481Z,6.07
2018-03-06T08:48:45.465Z,6.20
2018-03-06T08:49:45.416Z,6.18
2018-03-06T08:50:45.427Z,6.14
2018-03-06T08:51:45.410Z,6.15
2018-03-06T08:52:45.372Z,6.28
2018-03-06T08:53:45.323Z,6.29
2018-03-06T08:54:45.294Z,6.34
2018-03-06T08:55:45.261Z,6.49
2018-03-06T08:56:45.284Z,6.47
2018-03-06T08:57:45.225Z,6.72
2018-03-06T08:58:45.177Z,6.78
2018-03-06T08:59:45.160Z,6.88
2018-03-06T09:00:45.135Z,6.95
2018-03-06T09:01:45.110Z,7.01
2018-03-06T09:02:45.093Z,7.18
2018-03-06T09:03:45.076Z,7.01
2018-03-06T09:04:45.014Z,7.16
2018-03-06T09:05:44.968Z,7.12
2018-03-06T09:06:44.941Z,7.16
2018-03-06T09:07:44.936Z,7.23
2018-03-06T09:08:44.951Z,7.27
2018-03-06T09:09:44.892Z,7.26
2018-03-06T09:10:44.856Z,7.36
2018-03-06T09:11:44.814Z,7.34
2018-03-06T09:12:44.796Z,7.45
2018-03-06T09:13:44.779Z,7.40
2018-03-06T09:14:44.747Z,7.51
2018-03-06T09:15:44.715Z,7.49
2018-03-06T09:16:44.674Z,7.45
2018-03-06T09:17:44.662Z,7.51
2018-03-06T09:18:44.666Z,7.55
2018-03-06T09:19:44.595Z,7.59
2018-03-06T09:20:44.574Z,7.64
2018-03-06T09:21:44.559Z,7.70
2018-03-06T09:22:44.541Z,7.83
2018-03-06T09:23:44.546Z,7.80
2018-03-06T09:24:44.492Z,7.93
2018-03-06T09:25:44.418Z,7.91
2018-03-06T09:26:44.415Z,8.04
2018-03-06T09:27:44.423Z,7.99
2018-03-06T09:28:44.341Z,8.07
2018-03-06T09:29:44.320Z,8.17
2018-03-06T09:30:44.302Z,8.17
2018-03-06T09:31:44.269Z,8.16
2018-03-06T09:32:44.240Z,8.31
2018-03-06T09:33:44.255Z,8.24
2018-03-06T09:34:44.202Z,8.26
2018-03-06T09:35:44.165Z,8.22
2018-03-06T09:36:44.141Z,8.28
2018-03-06T09:37:44.116Z,8.26
2018-03-06T09:38:44.093Z,8.35
2018-03-06T09:39:44.075Z,8.29
2018-03-06T09:40:44.042Z,8.40
2018-03-06T09:41:44.002Z,8.47
2018-03-06T09:42:43.985Z,8.44
2018-03-06T09:43:43.966Z,8.47
2018-03-06T09:44:43.956Z,8.52
2018-03-06T09:45:43.891Z,8.62
2018-03-06T09:46:43.875Z,8.67
2018-03-06T09:47:43.846Z,8.69
2018-03-06T09:48:43.816Z,8.83
2018-03-06T09:49:43.777Z,8.87
2018-03-06T09:50:43.772Z,8.97
2018-03-06T09:51:43.757Z,9.11
2018-03-06T09:52:43.711Z,9.03
2018-03-06T09:53:43.733Z,9.11
2018-03-06T09:54:44.193Z,9.08
2018-03-06T09:55:43.629Z,9.23
2018-03-06T09:56:43.693Z,9.29
2018-03-06T09:57:43.569Z,9.30
2018-03-06T09:58:43.537Z,9.30
2018-03-06T09:59:43.539Z,9.38
2018-03-06T10:00:43.508Z,9.38
2018-03-06T10:01:43.495Z,9.35
2018-03-06T10:02:43.438Z,9.38
2018-03-06T10:03:43.456Z,9.39
2018-03-06T10:04:43.395Z,9.44
2018-03-06T10:05:43.400Z,9.52
2018-03-06T10:06:43.346Z,9.60
2018-03-06T10:07:43.318Z,9.70
2018-03-06T10:08:43.282Z,9.78
2018-03-06T10:09:43.289Z,9.90
2018-03-06T10:10:43.290Z,10.13
2018-03-06T10:11:43.200Z,10.11
2018-03-06T10:12:43.186Z,10.26
2018-03-06T10:13:43.169Z,10.23
2018-03-06T10:14:43.121Z,10.18
2018-03-06T10:15:43.131Z,10.17
2018-03-06T10:16:43.107Z,10.25
2018-03-06T10:17:43.072Z,10.28
2018-03-06T10:18:43.031Z,10.21
2018-03-06T10:19:43.050Z,10.28
2018-03-06T10:20:43.008Z,10.26
2018-03-06T10:21:42.963Z,10.36
2018-03-06T10:22:42.946Z,10.32
2018-03-06T10:23:42.966Z,10.55
2018-03-06T10:24:42.877Z,10.63
2018-03-06T10:25:42.869Z,10.67
2018-03-06T10:26:42.863Z,10.65
2018-03-06T10:27:42.826Z,10.63
2018-03-06T10:28:42.806Z,10.70
2018-03-06T10:29:42.783Z,10.63
2018-03-06T10:30:42.715Z,10.77
2018-03-06T10:31:42.709Z,10.70
2018-03-06T10:32:42.694Z,10.67
2018-03-06T10:33:42.666Z,10.59
2018-03-06T10:34:42.644Z,10.63
2018-03-06T10:35:42.606Z,10.69
2018-03-06T10:36:42.573Z,10.83
2018-03-06T10:37:42.593Z,10.87
2018-03-06T10:38:42.543Z,10.88
2018-03-06T10:39:42.502Z,10.92
2018-03-06T10:40:42.496Z,10.97
2018-03-06T10:41:42.467Z,11.03
2018-03-06T10:42:42.432Z,10.98
2018-03-06T10:43:42.433Z,11.06
2018-03-06T10:44:42.387Z,11.03
2018-03-06T10:45:42.360Z,11.12
2018-03-06T10:46:42.326Z,11.27
2018-03-06T10:47:42.319Z,11.15
2018-03-06T10:48:42.306Z,11.09
2018-03-06T10:49:42.298Z,11.08
2018-03-06T10:50:42.238Z,11.15
2018-03-06T10:51:42.230Z,11.15
2018-03-06T10:52:42.186Z,11.21
2018-03-06T10:53:42.238Z,11.21
2018-03-06T10:54:42.146Z,11.13
2018-03-06T10:55:42.121Z,11.18
2018-03-06T10:56:42.140Z,11.21
2018-03-06T10:57:42.086Z,11.20
2018-03-06T10:58:42.048Z,11.20
2018-03-06T10:59:42.039Z,11.16
2018-03-06T11:00:41.986Z,11.27
2018-03-06T11:01:41.966Z,11.28
2018-03-06T11:02:41.948Z,11.26
2018-03-06T11:03:41.916Z,11.28
2018-03-06T11:04:41.895Z,11.35
2018-03-06T11:05:41.864Z,11.38
2018-03-06T11:06:41.842Z,11.35
2018-03-06T11:07:41.805Z,11.39
2018-03-06T11:08:41.803Z,11.42
2018-03-06T11:09:41.797Z,11.49
2018-03-06T11:10:41.743Z,11.48
2018-03-06T11:11:41.743Z,11.60
2018-03-06T11:12:41.698Z,11.56
2018-03-06T11:13:41.693Z,11.52
2018-03-06T11:14:41.660Z,11.66
2018-03-06T11:15:41.628Z,11.57
2018-03-06T11:16:41.586Z,11.75
2018-03-06T11:17:41.613Z,11.64
2018-03-06T11:18:41.558Z,11.70
2018-03-06T11:19:42.191Z,11.66
2018-03-06T11:20:41.507Z,11.71
2018-03-06T11:21:41.471Z,11.78
2018-03-06T11:22:41.478Z,11.81
2018-03-06T11:23:41.549Z,11.75
2018-03-06T11:24:41.597Z,11.78
2018-03-06T11:25:41.396Z,11.88
2018-03-06T11:26:41.457Z,11.89
2018-03-06T11:27:41.329Z,11.94
2018-03-06T11:28:41.327Z,11.98
2018-03-06T11:29:41.302Z,11.98
2018-03-06T11:30:41.274Z,11.97
2018-03-06T11:31:41.258Z,12.01
2018-03-06T11:32:41.241Z,11.95
2018-03-06T11:33:41.203Z,11.95
2018-03-06T11:34:41.193Z,11.95
2018-03-06T11:35:41.151Z,12.00
2018-03-06T11:36:41.102Z,11.97
2018-03-06T11:37:41.091Z,12.07
2018-03-06T11:38:41.070Z,12.10
2018-03-06T11:39:41.042Z,12.11
2018-03-06T11:40:41.013Z,12.15
2018-03-06T11:41:41.005Z,12.20
2018-03-06T11:42:40.967Z,12.05
2018-03-06T11:43:40.943Z,12.08
2018-03-06T11:44:40.930Z,12.23
2018-03-06T11:45:40.896Z,12.23
2018-03-06T11:46:40.925Z,12.19
2018-03-06T11:47:40.852Z,12.29
2018-03-06T11:48:40.840Z,12.23
2018-03-06T11:49:40.819Z,12.37
2018-03-06T11:50:40.812Z,12.37
2018-03-06T11:51:40.757Z,12.31
2018-03-06T11:52:40.743Z,12.47
2018-03-06T11:53:40.712Z,12.38
2018-03-06T11:54:40.768Z,12.51
2018-03-06T11:55:40.687Z,12.47
2018-03-06T11:56:40.728Z,12.62
2018-03-06T11:57:40.602Z,12.59
2018-03-06T11:58:40.662Z,12.63
2018-03-06T11:59:40.551Z,12.63
2018-03-06T12:00:40.703Z,12.65
2018-03-06T12:01:40.535Z,12.59
2018-03-06T12:02:40.486Z,12.58
2018-03-06T12:03:40.468Z,12.63
2018-03-06T12:04:40.456Z,12.62
2018-03-06T12:05:40.491Z,12.65
2018-03-06T12:06:40.412Z,12.74
2018-03-06T12:07:40.377Z,12.69
2018-03-06T12:08:40.356Z,12.73
2018-03-06T12:09:40.314Z,12.74
2018-03-06T12:10:40.316Z,12.83
2018-03-06T12:11:40.289Z,12.83
2018-03-06T12:12:40.298Z,12.86
2018-03-06T12:13:40.221Z,12.91
2018-03-06T12:14:40.257Z,12.98
2018-03-06T12:15:40.182Z,13.03
2018-03-06T12:16:40.164Z,13.01
2018-03-06T12:17:40.160Z,12.99
2018-03-06T12:18:40.162Z,13.09
2018-03-06T12:19:40.093Z,13.11
2018-03-06T12:20:40.143Z,13.20
2018-03-06T12:21:40.049Z,13.11
2018-03-06T12:22:40.007Z,13.16
2018-03-06T12:23:40.012Z,13.19
2018-03-06T12:24:40.011Z,13.17
2018-03-06T12:25:39.960Z,13.17
2018-03-06T12:26:39.942Z,13.10
2018-03-06T12:27:39.934Z,13.28
2018-03-06T12:28:40.044Z,13.28
2018-03-06T12:29:39.858Z,13.28
2018-03-06T12:30:39.853Z,13.25
2018-03-06T12:31:39.848Z,13.28
2018-03-06T12:32:39.808Z,13.27
2018-03-06T12:33:39.772Z,13.32
2018-03-06T12:34:39.751Z,13.37
2018-03-06T12:35:39.715Z,13.40
2018-03-06T12:36:39.688Z,13.35
2018-03-06T12:37:39.862Z,13.28
2018-03-06T12:38:39.645Z,13.27
2018-03-06T12:39:39.612Z,13.29
2018-03-06T12:40:39.595Z,13.29
2018-03-06T12:41:39.628Z,13.45
2018-03-06T12:42:39.546Z,13.40
2018-03-06T12:43:39.542Z,13.50
2018-03-06T12:44:39.493Z,13.54
2018-03-06T12:45:39.497Z,13.62
2018-03-06T12:46:39.449Z,13.66
2018-03-06T12:47:39.452Z,13.63
2018-03-06T12:48:39.400Z,13.72
2018-03-06T12:49:39.375Z,13.73
2018-03-06T12:50:39.410Z,13.78
2018-03-06T12:51:39.339Z,13.81
2018-03-06T12:52:39.326Z,13.75
2018-03-06T12:53:39.308Z,13.76
2018-03-06T12:54:39.303Z,13.83
2018-03-06T12:55:39.251Z,13.87
2018-03-06T12:56:39.246Z,13.86
2018-03-06T12:57:39.207Z,13.79
2018-03-06T12:58:39.228Z,13.78
2018-03-06T12:59:39.141Z,13.81
2018-03-06T13:00:39.126Z,13.88
2018-03-06T13:01:39.107Z,13.68
2018-03-06T13:02:39.157Z,13.75
2018-03-06T13:03:39.082Z,13.66
2018-03-06T13:04:39.059Z,13.65
2018-03-06T13:05:39.023Z,13.58
2018-03-06T13:06:39.016Z,13.68
2018-03-06T13:07:38.975Z,13.70
2018-03-06T13:08:38.942Z,13.63
2018-03-06T13:09:38.925Z,13.70
2018-03-06T13:10:38.891Z,13.73
2018-03-06T13:11:38.876Z,13.65